Aérodrome :
LOGIN :

S'inscrire | Disclaimer

   EN    FR    IT 

 










Légende :    VFR   VFR Marginal   IFR   IFR Intensif   IFR Très Intensif
Visi : 
Plafond : 
>= 8 km
>= 3000ft
5 à 8 km
1000 à 3000 ft
1500m à 5 km
500 à 1000 ft
800 à 1500m
200 à 500 ft
< 800m
< 200 ft
Symboles :   Orages  Brouillard  Fortes neiges  Fortes précipitations  Vent > 20 kt
SIGMETs :   Divers  Orages  Givrage  Turbulence  Onde Orograph.  Cendres Volcan.







- Altitude de l'aérodrome : 885 ft
- Code IATA : BAS
- Voir les cartes d'approche


LFSB - Bale-Mulhouse

DERNIER METAR :
  • 221430Z 11009KT 8000 FEW021 01/M03 Q1006 NOSIG

METARs EXPIRÉS :
  • 221400Z 11008KT 080V180 9000 BKN021 02/M03 Q1006 BECMG SCT022
  • 221330Z 11007KT 080V140 9000 BKN022 02/M03 Q1007 BECMG SCT022
  • 221300Z VRB02KT 9999 BKN021 01/M03 Q1008 NOSIG
  • 221230Z 18003KT 130V240 9999 BKN021 01/M04 Q1008 NOSIG
  • 221200Z 20006KT 9999 BKN021 00/M04 Q1009 NOSIG

TAF AMD TAF LFSB
Valide du 22 à 12h jusqu'au 23 à 12h UTC


221142Z 2212/2312 20005KT 9999 BKN020
TEMPO 2214/2218 SCT025
TEMPO 2218/2221 4500 BR NSC
BECMG 2221/2224 BKN035 OVC110
BECMG 2300/2302 -SN
TEMPO 2302/2306 3000 -SN OVC014
BECMG 2306/2309 NSW
Météo : +33 3 89 90 31 11
Pas de NOTAMs connus pour ce terrain.



MET'MAP, la Météo Aéronautique d'un coup d'oeil ! - Copyright ORBIFLY Décembre 2007 - Disclaimer

ORBIFLY MET'MAP TEAM :

Programmation & Développement : Alexandra Zaïnal
Conception & Développement : Baudouin d'Aumeries
Co-Programmation & Développement : Marc-Olivier Méhu
Soutien technique & logistique : Manuel Goepfert

Contact : metmap@orbifly.com




SOURCES & CREDITS :

   NOAA